sensor_id;sensor_type;location;lat;lon;timestamp;P1;durP1;ratioP1;P2;durP2;ratioP2
60847;SDS011;46681;47.696;9.140;2022-07-11T00:00:10;2.42;;;0.80;;
60847;SDS011;46681;47.696;9.140;2022-07-11T00:02:40;4.63;;;1.10;;
60847;SDS011;46681;47.696;9.140;2022-07-11T00:05:13;4.05;;;0.98;;
60847;SDS011;46681;47.696;9.140;2022-07-11T00:07:40;3.75;;;0.90;;
60847;SDS011;46681;47.696;9.140;2022-07-11T00:10:07;3.42;;;1.00;;
60847;SDS011;46681;47.696;9.140;2022-07-11T00:12:36;4.00;;;1.08;;
60847;SDS011;46681;47.696;9.140;2022-07-11T00:15:04;3.05;;;0.98;;
60847;SDS011;46681;47.696;9.140;2022-07-11T00:17:30;3.85;;;1.00;;
60847;SDS011;46681;47.696;9.140;2022-07-11T00:19:57;2.65;;;0.90;;
60847;SDS011;46681;47.696;9.140;2022-07-11T00:22:22;2.97;;;0.95;;
60847;SDS011;46681;47.696;9.140;2022-07-11T00:24:49;3.40;;;1.00;;
60847;SDS011;46681;47.696;9.140;2022-07-11T00:27:15;3.40;;;1.02;;
60847;SDS011;46681;47.696;9.140;2022-07-11T00:29:41;2.40;;;0.93;;
60847;SDS011;46681;47.696;9.140;2022-07-11T00:32:08;3.33;;;0.93;;
60847;SDS011;46681;47.696;9.140;2022-07-11T00:34:34;3.58;;;0.90;;
60847;SDS011;46681;47.696;9.140;2022-07-11T00:37:00;1.55;;;0.90;;
60847;SDS011;46681;47.696;9.140;2022-07-11T00:39:28;3.20;;;1.02;;
60847;SDS011;46681;47.696;9.140;2022-07-11T00:41:54;2.42;;;1.00;;
60847;SDS011;46681;47.696;9.140;2022-07-11T00:44:19;2.20;;;0.90;;
60847;SDS011;46681;47.696;9.140;2022-07-11T00:46:47;3.42;;;1.00;;
60847;SDS011;46681;47.696;9.140;2022-07-11T00:49:12;3.38;;;1.02;;
60847;SDS011;46681;47.696;9.140;2022-07-11T00:51:40;2.15;;;0.90;;
60847;SDS011;46681;47.696;9.140;2022-07-11T00:54:08;3.53;;;0.90;;
60847;SDS011;46681;47.696;9.140;2022-07-11T00:56:36;2.38;;;0.90;;
60847;SDS011;46681;47.696;9.140;2022-07-11T00:59:04;2.42;;;0.98;;
60847;SDS011;46681;47.696;9.140;2022-07-11T01:01:32;3.13;;;1.00;;
60847;SDS011;46681;47.696;9.140;2022-07-11T01:03:59;2.80;;;0.90;;
60847;SDS011;46681;47.696;9.140;2022-07-11T01:06:27;2.30;;;0.90;;
60847;SDS011;46681;47.696;9.140;2022-07-11T01:08:54;2.17;;;0.90;;
60847;SDS011;46681;47.696;9.140;2022-07-11T01:11:21;2.70;;;0.90;;
60847;SDS011;46681;47.696;9.140;2022-07-11T01:13:47;2.85;;;1.10;;
60847;SDS011;46681;47.696;9.140;2022-07-11T01:16:16;2.85;;;1.05;;
60847;SDS011;46681;47.696;9.140;2022-07-11T01:18:47;3.65;;;0.98;;
60847;SDS011;46681;47.696;9.140;2022-07-11T01:23:54;2.65;;;0.95;;
60847;SDS011;46681;47.696;9.140;2022-07-11T01:26:21;2.70;;;1.00;;
60847;SDS011;46681;47.696;9.140;2022-07-11T01:28:51;3.30;;;1.00;;
60847;SDS011;46681;47.696;9.140;2022-07-11T01:31:16;2.33;;;1.00;;
60847;SDS011;46681;47.696;9.140;2022-07-11T01:33:46;3.63;;;1.00;;
60847;SDS011;46681;47.696;9.140;2022-07-11T01:36:14;2.65;;;0.80;;
60847;SDS011;46681;47.696;9.140;2022-07-11T01:38:41;3.03;;;1.00;;
60847;SDS011;46681;47.696;9.140;2022-07-11T01:41:09;1.83;;;0.90;;
60847;SDS011;46681;47.696;9.140;2022-07-11T01:43:37;1.77;;;0.95;;
60847;SDS011;46681;47.696;9.140;2022-07-11T01:46:04;5.22;;;1.10;;
60847;SDS011;46681;47.696;9.140;2022-07-11T01:48:31;3.28;;;0.95;;
60847;SDS011;46681;47.696;9.140;2022-07-11T01:50:57;3.67;;;1.08;;
60847;SDS011;46681;47.696;9.140;2022-07-11T01:53:25;2.83;;;1.20;;
60847;SDS011;46681;47.696;9.140;2022-07-11T01:55:51;3.60;;;1.00;;
60847;SDS011;46681;47.696;9.140;2022-07-11T01:58:18;4.47;;;1.00;;
60847;SDS011;46681;47.696;9.140;2022-07-11T02:00:43;4.25;;;1.08;;
60847;SDS011;46681;47.696;9.140;2022-07-11T02:03:12;2.78;;;1.00;;
60847;SDS011;46681;47.696;9.140;2022-07-11T02:05:39;4.53;;;1.08;;
60847;SDS011;46681;47.696;9.140;2022-07-11T02:08:08;2.92;;;1.05;;
60847;SDS011;46681;47.696;9.140;2022-07-11T02:13:07;2.97;;;1.00;;
60847;SDS011;46681;47.696;9.140;2022-07-11T02:15:37;2.13;;;0.90;;
60847;SDS011;46681;47.696;9.140;2022-07-11T02:18:04;2.95;;;1.10;;
60847;SDS011;46681;47.696;9.140;2022-07-11T02:20:32;3.33;;;1.05;;
60847;SDS011;46681;47.696;9.140;2022-07-11T02:23:07;4.05;;;1.10;;
60847;SDS011;46681;47.696;9.140;2022-07-11T02:25:36;3.17;;;1.08;;
60847;SDS011;46681;47.696;9.140;2022-07-11T02:28:07;2.75;;;1.05;;
60847;SDS011;46681;47.696;9.140;2022-07-11T02:30:37;4.57;;;1.10;;
60847;SDS011;46681;47.696;9.140;2022-07-11T02:33:09;4.40;;;1.20;;
60847;SDS011;46681;47.696;9.140;2022-07-11T02:35:38;3.45;;;1.10;;
60847;SDS011;46681;47.696;9.140;2022-07-11T02:38:05;3.20;;;1.05;;
60847;SDS011;46681;47.696;9.140;2022-07-11T02:40:33;2.08;;;0.90;;
60847;SDS011;46681;47.696;9.140;2022-07-11T02:43:04;3.25;;;0.98;;
60847;SDS011;46681;47.696;9.140;2022-07-11T02:45:33;2.47;;;1.08;;
60847;SDS011;46681;47.696;9.140;2022-07-11T02:48:00;3.55;;;1.13;;
60847;SDS011;46681;47.696;9.140;2022-07-11T02:50:27;3.85;;;1.30;;
60847;SDS011;46681;47.696;9.140;2022-07-11T02:52:52;2.97;;;1.08;;
60847;SDS011;46681;47.696;9.140;2022-07-11T02:55:18;2.47;;;1.08;;
60847;SDS011;46681;47.696;9.140;2022-07-11T02:57:47;3.80;;;1.15;;
60847;SDS011;46681;47.696;9.140;2022-07-11T03:00:15;3.33;;;1.10;;
60847;SDS011;46681;47.696;9.140;2022-07-11T03:02:43;4.47;;;1.10;;
60847;SDS011;46681;47.696;9.140;2022-07-11T03:05:13;3.25;;;1.10;;
60847;SDS011;46681;47.696;9.140;2022-07-11T03:07:40;4.30;;;1.17;;
60847;SDS011;46681;47.696;9.140;2022-07-11T03:10:08;3.58;;;1.10;;
60847;SDS011;46681;47.696;9.140;2022-07-11T03:12:34;4.55;;;1.20;;
60847;SDS011;46681;47.696;9.140;2022-07-11T03:15:05;3.15;;;1.15;;
60847;SDS011;46681;47.696;9.140;2022-07-11T03:17:34;2.40;;;1.02;;
60847;SDS011;46681;47.696;9.140;2022-07-11T03:20:04;4.30;;;1.10;;
60847;SDS011;46681;47.696;9.140;2022-07-11T03:22:30;4.30;;;1.20;;
60847;SDS011;46681;47.696;9.140;2022-07-11T03:24:59;2.45;;;1.10;;
60847;SDS011;46681;47.696;9.140;2022-07-11T03:27:26;4.28;;;1.27;;
60847;SDS011;46681;47.696;9.140;2022-07-11T03:29:56;5.28;;;1.40;;
60847;SDS011;46681;47.696;9.140;2022-07-11T03:32:25;5.75;;;1.45;;
60847;SDS011;46681;47.696;9.140;2022-07-11T03:34:50;3.53;;;1.30;;
60847;SDS011;46681;47.696;9.140;2022-07-11T03:37:17;2.97;;;1.23;;
60847;SDS011;46681;47.696;9.140;2022-07-11T03:39:43;4.55;;;1.27;;
60847;SDS011;46681;47.696;9.140;2022-07-11T03:42:10;2.78;;;1.15;;
60847;SDS011;46681;47.696;9.140;2022-07-11T03:44:36;3.38;;;1.20;;
60847;SDS011;46681;47.696;9.140;2022-07-11T03:47:04;3.58;;;1.10;;
60847;SDS011;46681;47.696;9.140;2022-07-11T03:49:30;2.33;;;1.05;;
60847;SDS011;46681;47.696;9.140;2022-07-11T03:51:55;3.88;;;1.20;;
60847;SDS011;46681;47.696;9.140;2022-07-11T03:54:21;3.30;;;1.20;;
60847;SDS011;46681;47.696;9.140;2022-07-11T03:56:50;2.42;;;1.00;;
60847;SDS011;46681;47.696;9.140;2022-07-11T03:59:20;2.65;;;1.20;;
60847;SDS011;46681;47.696;9.140;2022-07-11T04:01:47;3.17;;;1.20;;
60847;SDS011;46681;47.696;9.140;2022-07-11T04:04:13;4.18;;;1.20;;
60847;SDS011;46681;47.696;9.140;2022-07-11T04:06:40;3.75;;;1.30;;
60847;SDS011;46681;47.696;9.140;2022-07-11T04:09:07;4.05;;;1.20;;
60847;SDS011;46681;47.696;9.140;2022-07-11T04:11:37;4.25;;;1.30;;
60847;SDS011;46681;47.696;9.140;2022-07-11T04:14:02;3.60;;;1.30;;
60847;SDS011;46681;47.696;9.140;2022-07-11T04:16:34;5.35;;;1.20;;
60847;SDS011;46681;47.696;9.140;2022-07-11T04:19:05;2.97;;;1.02;;
60847;SDS011;46681;47.696;9.140;2022-07-11T04:21:38;3.28;;;1.27;;
60847;SDS011;46681;47.696;9.140;2022-07-11T04:24:07;3.25;;;1.20;;
60847;SDS011;46681;47.696;9.140;2022-07-11T04:26:38;3.03;;;1.10;;
60847;SDS011;46681;47.696;9.140;2022-07-11T04:29:05;3.63;;;1.20;;
60847;SDS011;46681;47.696;9.140;2022-07-11T04:31:31;3.67;;;1.20;;
60847;SDS011;46681;47.696;9.140;2022-07-11T04:34:04;2.55;;;1.10;;
60847;SDS011;46681;47.696;9.140;2022-07-11T04:36:29;3.45;;;1.30;;
60847;SDS011;46681;47.696;9.140;2022-07-11T04:38:56;3.60;;;1.30;;
60847;SDS011;46681;47.696;9.140;2022-07-11T04:41:23;3.38;;;1.27;;
60847;SDS011;46681;47.696;9.140;2022-07-11T04:43:49;3.35;;;1.20;;
60847;SDS011;46681;47.696;9.140;2022-07-11T04:46:15;3.35;;;1.30;;
60847;SDS011;46681;47.696;9.140;2022-07-11T04:48:42;3.97;;;1.20;;
60847;SDS011;46681;47.696;9.140;2022-07-11T04:51:15;3.75;;;1.42;;
60847;SDS011;46681;47.696;9.140;2022-07-11T04:53:41;2.40;;;1.10;;
60847;SDS011;46681;47.696;9.140;2022-07-11T04:56:09;3.85;;;1.40;;
60847;SDS011;46681;47.696;9.140;2022-07-11T04:58:38;4.72;;;1.10;;
60847;SDS011;46681;47.696;9.140;2022-07-11T05:01:07;4.80;;;1.20;;
60847;SDS011;46681;47.696;9.140;2022-07-11T05:03:37;4.57;;;1.30;;
60847;SDS011;46681;47.696;9.140;2022-07-11T05:06:05;9.20;;;1.60;;
60847;SDS011;46681;47.696;9.140;2022-07-11T05:08:33;4.63;;;1.40;;
60847;SDS011;46681;47.696;9.140;2022-07-11T05:10:59;11.80;;;1.77;;
60847;SDS011;46681;47.696;9.140;2022-07-11T05:13:38;7.50;;;1.70;;
60847;SDS011;46681;47.696;9.140;2022-07-11T05:16:05;4.93;;;1.40;;
60847;SDS011;46681;47.696;9.140;2022-07-11T05:18:32;4.57;;;1.30;;
60847;SDS011;46681;47.696;9.140;2022-07-11T05:20:59;7.45;;;1.55;;
60847;SDS011;46681;47.696;9.140;2022-07-11T05:23:25;8.07;;;1.50;;
60847;SDS011;46681;47.696;9.140;2022-07-11T05:26:02;3.78;;;1.27;;
60847;SDS011;46681;47.696;9.140;2022-07-11T05:28:32;5.88;;;1.33;;
60847;SDS011;46681;47.696;9.140;2022-07-11T05:31:03;6.00;;;1.42;;
60847;SDS011;46681;47.696;9.140;2022-07-11T05:33:41;4.07;;;1.40;;
60847;SDS011;46681;47.696;9.140;2022-07-11T05:36:10;4.13;;;1.20;;
60847;SDS011;46681;47.696;9.140;2022-07-11T05:38:39;5.72;;;1.40;;
60847;SDS011;46681;47.696;9.140;2022-07-11T05:41:10;7.20;;;1.65;;
60847;SDS011;46681;47.696;9.140;2022-07-11T05:43:43;4.43;;;1.23;;
60847;SDS011;46681;47.696;9.140;2022-07-11T05:46:12;5.07;;;1.30;;
60847;SDS011;46681;47.696;9.140;2022-07-11T05:48:44;5.13;;;1.20;;
60847;SDS011;46681;47.696;9.140;2022-07-11T05:51:11;5.65;;;1.50;;
60847;SDS011;46681;47.696;9.140;2022-07-11T05:53:40;5.97;;;1.40;;
60847;SDS011;46681;47.696;9.140;2022-07-11T05:56:06;4.18;;;1.30;;
60847;SDS011;46681;47.696;9.140;2022-07-11T05:58:35;5.53;;;1.40;;
60847;SDS011;46681;47.696;9.140;2022-07-11T06:01:05;5.15;;;1.27;;
60847;SDS011;46681;47.696;9.140;2022-07-11T06:03:32;4.65;;;1.40;;
60847;SDS011;46681;47.696;9.140;2022-07-11T06:05:59;3.50;;;1.35;;
60847;SDS011;46681;47.696;9.140;2022-07-11T06:08:32;4.05;;;1.27;;
60847;SDS011;46681;47.696;9.140;2022-07-11T06:11:00;5.20;;;1.25;;
60847;SDS011;46681;47.696;9.140;2022-07-11T06:13:27;5.70;;;1.50;;
60847;SDS011;46681;47.696;9.140;2022-07-11T06:16:01;5.50;;;1.60;;
60847;SDS011;46681;47.696;9.140;2022-07-11T06:18:31;5.70;;;1.55;;
60847;SDS011;46681;47.696;9.140;2022-07-11T06:21:13;4.90;;;1.30;;
60847;SDS011;46681;47.696;9.140;2022-07-11T06:23:43;12.10;;;1.67;;
60847;SDS011;46681;47.696;9.140;2022-07-11T06:26:14;8.35;;;1.50;;
60847;SDS011;46681;47.696;9.140;2022-07-11T06:28:49;9.98;;;1.52;;
60847;SDS011;46681;47.696;9.140;2022-07-11T06:31:23;6.15;;;1.42;;
60847;SDS011;46681;47.696;9.140;2022-07-11T06:33:52;12.43;;;1.60;;
60847;SDS011;46681;47.696;9.140;2022-07-11T06:36:27;9.98;;;1.60;;
60847;SDS011;46681;47.696;9.140;2022-07-11T06:39:00;8.65;;;1.50;;
60847;SDS011;46681;47.696;9.140;2022-07-11T06:41:26;7.90;;;1.45;;
60847;SDS011;46681;47.696;9.140;2022-07-11T06:43:54;7.20;;;1.58;;
60847;SDS011;46681;47.696;9.140;2022-07-11T06:46:29;8.77;;;1.80;;
60847;SDS011;46681;47.696;9.140;2022-07-11T06:49:04;8.35;;;1.58;;
60847;SDS011;46681;47.696;9.140;2022-07-11T06:51:42;6.30;;;1.30;;
60847;SDS011;46681;47.696;9.140;2022-07-11T06:54:09;6.47;;;1.50;;
60847;SDS011;46681;47.696;9.140;2022-07-11T06:56:44;6.68;;;1.30;;
60847;SDS011;46681;47.696;9.140;2022-07-11T06:59:13;6.38;;;1.30;;
60847;SDS011;46681;47.696;9.140;2022-07-11T07:01:45;5.15;;;1.50;;
60847;SDS011;46681;47.696;9.140;2022-07-11T07:04:21;6.10;;;1.30;;
60847;SDS011;46681;47.696;9.140;2022-07-11T07:06:50;5.45;;;1.35;;
60847;SDS011;46681;47.696;9.140;2022-07-11T07:09:15;8.38;;;1.40;;
60847;SDS011;46681;47.696;9.140;2022-07-11T07:11:45;3.60;;;1.30;;
60847;SDS011;46681;47.696;9.140;2022-07-11T07:14:18;6.80;;;1.40;;
60847;SDS011;46681;47.696;9.140;2022-07-11T07:16:47;7.00;;;1.70;;
60847;SDS011;46681;47.696;9.140;2022-07-11T07:19:16;5.60;;;1.33;;
60847;SDS011;46681;47.696;9.140;2022-07-11T07:21:42;5.28;;;1.27;;
60847;SDS011;46681;47.696;9.140;2022-07-11T07:24:11;7.43;;;1.48;;
60847;SDS011;46681;47.696;9.140;2022-07-11T07:26:54;5.53;;;1.23;;
60847;SDS011;46681;47.696;9.140;2022-07-11T07:29:28;5.13;;;1.30;;
60847;SDS011;46681;47.696;9.140;2022-07-11T07:32:08;5.05;;;1.33;;
60847;SDS011;46681;47.696;9.140;2022-07-11T07:34:40;5.10;;;1.40;;
60847;SDS011;46681;47.696;9.140;2022-07-11T07:37:10;5.25;;;1.50;;
60847;SDS011;46681;47.696;9.140;2022-07-11T07:39:38;6.82;;;1.33;;
60847;SDS011;46681;47.696;9.140;2022-07-11T07:42:04;4.28;;;1.30;;
60847;SDS011;46681;47.696;9.140;2022-07-11T07:44:33;4.70;;;1.30;;
60847;SDS011;46681;47.696;9.140;2022-07-11T07:47:00;6.65;;;1.30;;
60847;SDS011;46681;47.696;9.140;2022-07-11T07:49:37;4.50;;;1.23;;
60847;SDS011;46681;47.696;9.140;2022-07-11T07:52:11;5.65;;;1.38;;
60847;SDS011;46681;47.696;9.140;2022-07-11T07:54:45;5.63;;;1.20;;
60847;SDS011;46681;47.696;9.140;2022-07-11T07:57:34;3.78;;;1.25;;
60847;SDS011;46681;47.696;9.140;2022-07-11T08:00:04;5.78;;;1.35;;
60847;SDS011;46681;47.696;9.140;2022-07-11T08:02:51;5.55;;;1.20;;
60847;SDS011;46681;47.696;9.140;2022-07-11T08:05:28;6.07;;;1.23;;
60847;SDS011;46681;47.696;9.140;2022-07-11T08:08:08;4.40;;;1.20;;
60847;SDS011;46681;47.696;9.140;2022-07-11T08:10:45;4.53;;;1.20;;
60847;SDS011;46681;47.696;9.140;2022-07-11T08:13:14;4.95;;;1.10;;
60847;SDS011;46681;47.696;9.140;2022-07-11T08:15:48;4.13;;;1.10;;
60847;SDS011;46681;47.696;9.140;2022-07-11T08:18:15;5.82;;;1.20;;
60847;SDS011;46681;47.696;9.140;2022-07-11T08:20:40;5.85;;;1.10;;
60847;SDS011;46681;47.696;9.140;2022-07-11T08:23:06;4.00;;;0.95;;
60847;SDS011;46681;47.696;9.140;2022-07-11T08:25:32;4.30;;;1.02;;
60847;SDS011;46681;47.696;9.140;2022-07-11T08:27:59;4.60;;;1.15;;
60847;SDS011;46681;47.696;9.140;2022-07-11T08:30:28;2.67;;;1.00;;
60847;SDS011;46681;47.696;9.140;2022-07-11T08:32:54;2.63;;;0.90;;
60847;SDS011;46681;47.696;9.140;2022-07-11T08:35:22;4.68;;;1.13;;
60847;SDS011;46681;47.696;9.140;2022-07-11T08:37:54;4.38;;;1.00;;
60847;SDS011;46681;47.696;9.140;2022-07-11T08:40:22;3.60;;;1.10;;
60847;SDS011;46681;47.696;9.140;2022-07-11T08:42:49;5.22;;;1.05;;
60847;SDS011;46681;47.696;9.140;2022-07-11T08:45:26;3.22;;;0.90;;
60847;SDS011;46681;47.696;9.140;2022-07-11T08:48:09;1.35;;;0.80;;
60847;SDS011;46681;47.696;9.140;2022-07-11T08:50:45;5.90;;;1.00;;
60847;SDS011;46681;47.696;9.140;2022-07-11T08:53:16;2.47;;;0.88;;
60847;SDS011;46681;47.696;9.140;2022-07-11T08:55:44;2.20;;;0.90;;
60847;SDS011;46681;47.696;9.140;2022-07-11T08:58:18;3.17;;;0.90;;
60847;SDS011;46681;47.696;9.140;2022-07-11T09:01:24;2.80;;;0.90;;
60847;SDS011;46681;47.696;9.140;2022-07-11T09:03:58;4.10;;;1.00;;
60847;SDS011;46681;47.696;9.140;2022-07-11T09:06:36;2.55;;;0.80;;
60847;SDS011;46681;47.696;9.140;2022-07-11T09:09:06;2.70;;;0.73;;
60847;SDS011;46681;47.696;9.140;2022-07-11T09:11:52;2.60;;;0.80;;
60847;SDS011;46681;47.696;9.140;2022-07-11T09:14:31;4.65;;;1.00;;
60847;SDS011;46681;47.696;9.140;2022-07-11T09:17:08;2.22;;;0.80;;
60847;SDS011;46681;47.696;9.140;2022-07-11T09:19:41;6.15;;;0.90;;
60847;SDS011;46681;47.696;9.140;2022-07-11T09:22:11;1.45;;;0.77;;
60847;SDS011;46681;47.696;9.140;2022-07-11T09:25:05;2.83;;;0.80;;
60847;SDS011;46681;47.696;9.140;2022-07-11T09:27:47;3.25;;;0.90;;
60847;SDS011;46681;47.696;9.140;2022-07-11T09:30:36;2.05;;;0.68;;
60847;SDS011;46681;47.696;9.140;2022-07-11T09:33:14;1.73;;;0.68;;
60847;SDS011;46681;47.696;9.140;2022-07-11T09:36:01;2.25;;;0.90;;
60847;SDS011;46681;47.696;9.140;2022-07-11T09:38:37;2.40;;;0.80;;
60847;SDS011;46681;47.696;9.140;2022-07-11T09:41:42;5.20;;;0.90;;
60847;SDS011;46681;47.696;9.140;2022-07-11T09:44:21;4.53;;;0.98;;
60847;SDS011;46681;47.696;9.140;2022-07-11T09:49:38;2.75;;;0.73;;
60847;SDS011;46681;47.696;9.140;2022-07-11T09:52:14;3.53;;;0.93;;
60847;SDS011;46681;47.696;9.140;2022-07-11T09:57:39;2.78;;;0.88;;
60847;SDS011;46681;47.696;9.140;2022-07-11T10:00:16;2.45;;;0.70;;
60847;SDS011;46681;47.696;9.140;2022-07-11T10:02:59;2.53;;;0.80;;
60847;SDS011;46681;47.696;9.140;2022-07-11T10:05:27;2.92;;;0.73;;
60847;SDS011;46681;47.696;9.140;2022-07-11T10:08:27;5.22;;;0.90;;
60847;SDS011;46681;47.696;9.140;2022-07-11T10:11:13;3.33;;;0.82;;
60847;SDS011;46681;47.696;9.140;2022-07-11T10:13:50;2.55;;;0.75;;
60847;SDS011;46681;47.696;9.140;2022-07-11T10:22:06;2.65;;;0.60;;
60847;SDS011;46681;47.696;9.140;2022-07-11T10:28:23;1.15;;;0.70;;
60847;SDS011;46681;47.696;9.140;2022-07-11T10:31:05;3.35;;;0.80;;
60847;SDS011;46681;47.696;9.140;2022-07-11T10:34:10;2.88;;;0.68;;
60847;SDS011;46681;47.696;9.140;2022-07-11T10:37:23;3.05;;;0.80;;
60847;SDS011;46681;47.696;9.140;2022-07-11T10:46:25;3.35;;;0.70;;
60847;SDS011;46681;47.696;9.140;2022-07-11T10:57:17;2.00;;;0.63;;
60847;SDS011;46681;47.696;9.140;2022-07-11T11:00:00;1.25;;;0.60;;
60847;SDS011;46681;47.696;9.140;2022-07-11T11:03:01;3.60;;;0.75;;
60847;SDS011;46681;47.696;9.140;2022-07-11T11:05:53;2.42;;;0.65;;
60847;SDS011;46681;47.696;9.140;2022-07-11T11:08:42;1.58;;;0.65;;
60847;SDS011;46681;47.696;9.140;2022-07-11T11:14:22;2.53;;;0.60;;
60847;SDS011;46681;47.696;9.140;2022-07-11T11:17:53;1.55;;;0.70;;
60847;SDS011;46681;47.696;9.140;2022-07-11T11:20:10;1.17;;;0.50;;
60847;SDS011;46681;47.696;9.140;2022-07-11T11:23:19;1.27;;;0.63;;
60847;SDS011;46681;47.696;9.140;2022-07-11T11:29:09;3.33;;;0.73;;
60847;SDS011;46681;47.696;9.140;2022-07-11T11:31:51;0.80;;;0.50;;
60847;SDS011;46681;47.696;9.140;2022-07-11T11:34:44;2.05;;;0.60;;
60847;SDS011;46681;47.696;9.140;2022-07-11T11:37:11;2.20;;;0.70;;
60847;SDS011;46681;47.696;9.140;2022-07-11T11:39:49;1.52;;;0.70;;
60847;SDS011;46681;47.696;9.140;2022-07-11T11:42:34;3.97;;;0.80;;
60847;SDS011;46681;47.696;9.140;2022-07-11T11:45:31;0.77;;;0.45;;
60847;SDS011;46681;47.696;9.140;2022-07-11T11:51:04;2.28;;;0.70;;
60847;SDS011;46681;47.696;9.140;2022-07-11T11:53:52;2.13;;;0.73;;
60847;SDS011;46681;47.696;9.140;2022-07-11T11:56:36;2.20;;;0.70;;
60847;SDS011;46681;47.696;9.140;2022-07-11T11:59:29;3.92;;;0.60;;
60847;SDS011;46681;47.696;9.140;2022-07-11T12:05:16;2.78;;;0.70;;
60847;SDS011;46681;47.696;9.140;2022-07-11T12:07:42;3.30;;;0.75;;
60847;SDS011;46681;47.696;9.140;2022-07-11T12:10:31;0.93;;;0.50;;
60847;SDS011;46681;47.696;9.140;2022-07-11T12:13:09;4.38;;;0.73;;
60847;SDS011;46681;47.696;9.140;2022-07-11T12:15:48;1.70;;;0.65;;
60847;SDS011;46681;47.696;9.140;2022-07-11T12:18:20;2.05;;;0.70;;
60847;SDS011;46681;47.696;9.140;2022-07-11T12:20:52;2.33;;;0.80;;
60847;SDS011;46681;47.696;9.140;2022-07-11T12:23:20;1.52;;;0.60;;
60847;SDS011;46681;47.696;9.140;2022-07-11T12:25:53;2.83;;;0.75;;
60847;SDS011;46681;47.696;9.140;2022-07-11T12:31:02;4.65;;;0.80;;
60847;SDS011;46681;47.696;9.140;2022-07-11T12:33:50;2.42;;;0.70;;
60847;SDS011;46681;47.696;9.140;2022-07-11T12:36:31;1.48;;;0.70;;
60847;SDS011;46681;47.696;9.140;2022-07-11T12:39:27;2.60;;;0.80;;
60847;SDS011;46681;47.696;9.140;2022-07-11T12:42:11;2.72;;;0.70;;
60847;SDS011;46681;47.696;9.140;2022-07-11T12:44:59;3.13;;;0.70;;
60847;SDS011;46681;47.696;9.140;2022-07-11T12:47:36;3.38;;;0.80;;
60847;SDS011;46681;47.696;9.140;2022-07-11T12:50:17;1.15;;;0.60;;
60847;SDS011;46681;47.696;9.140;2022-07-11T12:53:05;2.70;;;0.65;;
60847;SDS011;46681;47.696;9.140;2022-07-11T12:55:56;1.23;;;0.60;;
60847;SDS011;46681;47.696;9.140;2022-07-11T12:58:38;4.07;;;0.90;;
60847;SDS011;46681;47.696;9.140;2022-07-11T13:01:25;1.15;;;0.50;;
60847;SDS011;46681;47.696;9.140;2022-07-11T13:03:58;1.77;;;0.50;;
60847;SDS011;46681;47.696;9.140;2022-07-11T13:06:32;1.85;;;0.52;;
60847;SDS011;46681;47.696;9.140;2022-07-11T13:09:12;1.17;;;0.70;;
60847;SDS011;46681;47.696;9.140;2022-07-11T13:11:40;2.80;;;0.50;;
60847;SDS011;46681;47.696;9.140;2022-07-11T13:14:10;2.17;;;0.60;;
60847;SDS011;46681;47.696;9.140;2022-07-11T13:16:47;2.45;;;0.52;;
60847;SDS011;46681;47.696;9.140;2022-07-11T13:19:33;1.20;;;0.60;;
60847;SDS011;46681;47.696;9.140;2022-07-11T13:22:05;1.65;;;0.70;;
60847;SDS011;46681;47.696;9.140;2022-07-11T13:24:39;3.03;;;0.60;;
60847;SDS011;46681;47.696;9.140;2022-07-11T13:27:06;1.80;;;0.50;;
60847;SDS011;46681;47.696;9.140;2022-07-11T13:29:55;1.52;;;0.60;;
60847;SDS011;46681;47.696;9.140;2022-07-11T13:32:28;1.98;;;0.60;;
60847;SDS011;46681;47.696;9.140;2022-07-11T13:34:59;2.10;;;0.70;;
60847;SDS011;46681;47.696;9.140;2022-07-11T13:37:35;1.13;;;0.60;;
60847;SDS011;46681;47.696;9.140;2022-07-11T13:40:13;0.65;;;0.43;;
60847;SDS011;46681;47.696;9.140;2022-07-11T13:42:59;0.57;;;0.50;;
60847;SDS011;46681;47.696;9.140;2022-07-11T13:45:35;2.03;;;0.60;;
60847;SDS011;46681;47.696;9.140;2022-07-11T13:48:11;2.35;;;0.60;;
60847;SDS011;46681;47.696;9.140;2022-07-11T13:50:42;2.08;;;0.80;;
60847;SDS011;46681;47.696;9.140;2022-07-11T13:53:27;2.30;;;0.60;;
60847;SDS011;46681;47.696;9.140;2022-07-11T13:56:00;1.42;;;0.70;;
60847;SDS011;46681;47.696;9.140;2022-07-11T13:58:32;2.70;;;0.70;;
60847;SDS011;46681;47.696;9.140;2022-07-11T14:01:08;2.53;;;0.70;;
60847;SDS011;46681;47.696;9.140;2022-07-11T14:03:41;0.85;;;0.60;;
60847;SDS011;46681;47.696;9.140;2022-07-11T14:06:12;2.97;;;0.80;;
60847;SDS011;46681;47.696;9.140;2022-07-11T14:09:01;2.20;;;0.70;;
60847;SDS011;46681;47.696;9.140;2022-07-11T14:11:52;2.47;;;0.70;;
60847;SDS011;46681;47.696;9.140;2022-07-11T14:14:29;2.67;;;0.70;;
60847;SDS011;46681;47.696;9.140;2022-07-11T14:17:13;2.70;;;0.70;;
60847;SDS011;46681;47.696;9.140;2022-07-11T14:19:49;3.53;;;0.80;;
60847;SDS011;46681;47.696;9.140;2022-07-11T14:22:23;1.42;;;0.55;;
60847;SDS011;46681;47.696;9.140;2022-07-11T14:24:54;1.67;;;0.63;;
60847;SDS011;46681;47.696;9.140;2022-07-11T14:27:25;3.58;;;0.70;;
60847;SDS011;46681;47.696;9.140;2022-07-11T14:30:11;2.38;;;0.80;;
60847;SDS011;46681;47.696;9.140;2022-07-11T14:32:42;1.75;;;0.70;;
60847;SDS011;46681;47.696;9.140;2022-07-11T14:35:13;1.38;;;0.50;;
60847;SDS011;46681;47.696;9.140;2022-07-11T14:37:43;1.50;;;0.60;;
60847;SDS011;46681;47.696;9.140;2022-07-11T14:40:17;2.28;;;0.70;;
60847;SDS011;46681;47.696;9.140;2022-07-11T14:42:54;1.88;;;0.63;;
60847;SDS011;46681;47.696;9.140;2022-07-11T14:45:36;2.25;;;0.60;;
60847;SDS011;46681;47.696;9.140;2022-07-11T14:48:09;2.72;;;0.80;;
60847;SDS011;46681;47.696;9.140;2022-07-11T14:50:42;2.40;;;0.68;;
60847;SDS011;46681;47.696;9.140;2022-07-11T14:53:18;1.35;;;0.60;;
60847;SDS011;46681;47.696;9.140;2022-07-11T14:55:47;1.65;;;0.60;;
60847;SDS011;46681;47.696;9.140;2022-07-11T14:58:29;1.38;;;0.60;;
60847;SDS011;46681;47.696;9.140;2022-07-11T15:01:05;2.20;;;0.73;;
60847;SDS011;46681;47.696;9.140;2022-07-11T15:03:43;2.55;;;0.90;;
60847;SDS011;46681;47.696;9.140;2022-07-11T15:06:13;1.75;;;0.65;;
60847;SDS011;46681;47.696;9.140;2022-07-11T15:08:55;2.47;;;0.80;;
60847;SDS011;46681;47.696;9.140;2022-07-11T15:11:56;2.20;;;0.80;;
60847;SDS011;46681;47.696;9.140;2022-07-11T15:14:23;3.30;;;0.80;;
60847;SDS011;46681;47.696;9.140;2022-07-11T15:16:59;1.15;;;0.70;;
60847;SDS011;46681;47.696;9.140;2022-07-11T15:19:31;3.40;;;0.80;;
60847;SDS011;46681;47.696;9.140;2022-07-11T15:22:24;5.85;;;1.00;;
60847;SDS011;46681;47.696;9.140;2022-07-11T15:25:06;5.78;;;1.10;;
60847;SDS011;46681;47.696;9.140;2022-07-11T15:27:51;7.90;;;1.20;;
60847;SDS011;46681;47.696;9.140;2022-07-11T15:30:26;7.63;;;1.45;;
60847;SDS011;46681;47.696;9.140;2022-07-11T15:33:04;4.13;;;0.95;;
60847;SDS011;46681;47.696;9.140;2022-07-11T15:35:42;4.90;;;1.00;;
60847;SDS011;46681;47.696;9.140;2022-07-11T15:38:21;7.22;;;1.00;;
60847;SDS011;46681;47.696;9.140;2022-07-11T15:40:56;3.60;;;1.00;;
60847;SDS011;46681;47.696;9.140;2022-07-11T15:43:25;5.20;;;0.88;;
60847;SDS011;46681;47.696;9.140;2022-07-11T15:45:51;6.18;;;1.00;;
60847;SDS011;46681;47.696;9.140;2022-07-11T15:48:20;3.53;;;0.93;;
60847;SDS011;46681;47.696;9.140;2022-07-11T15:50:46;4.22;;;1.00;;
60847;SDS011;46681;47.696;9.140;2022-07-11T15:53:19;2.45;;;0.80;;
60847;SDS011;46681;47.696;9.140;2022-07-11T15:56:02;4.95;;;0.90;;
60847;SDS011;46681;47.696;9.140;2022-07-11T15:58:42;3.17;;;0.90;;
60847;SDS011;46681;47.696;9.140;2022-07-11T16:01:08;4.22;;;1.00;;
60847;SDS011;46681;47.696;9.140;2022-07-11T16:03:45;2.63;;;0.90;;
60847;SDS011;46681;47.696;9.140;2022-07-11T16:06:35;1.90;;;0.70;;
60847;SDS011;46681;47.696;9.140;2022-07-11T16:09:16;3.55;;;0.80;;
60847;SDS011;46681;47.696;9.140;2022-07-11T16:11:44;3.65;;;0.95;;
60847;SDS011;46681;47.696;9.140;2022-07-11T16:14:13;5.63;;;1.30;;